sensor_id;sensor_type;location;lat;lon;timestamp;temperature;humidity
23729;DHT22;12045;60.214;24.724;2023-05-23T00:01:06;13.40;99.90
23729;DHT22;12045;60.214;24.724;2023-05-23T00:03:35;13.30;99.90
23729;DHT22;12045;60.214;24.724;2023-05-23T00:06:05;13.00;99.90
23729;DHT22;12045;60.214;24.724;2023-05-23T00:08:33;12.80;99.90
23729;DHT22;12045;60.214;24.724;2023-05-23T00:11:00;12.80;99.90
23729;DHT22;12045;60.214;24.724;2023-05-23T00:13:28;12.80;99.90
23729;DHT22;12045;60.214;24.724;2023-05-23T00:15:55;13.00;99.90
23729;DHT22;12045;60.214;24.724;2023-05-23T00:18:23;12.60;99.90
23729;DHT22;12045;60.214;24.724;2023-05-23T00:20:51;13.30;99.90
23729;DHT22;12045;60.214;24.724;2023-05-23T00:23:18;13.40;99.90
23729;DHT22;12045;60.214;24.724;2023-05-23T00:25:47;13.40;99.90
23729;DHT22;12045;60.214;24.724;2023-05-23T00:28:21;13.20;99.90
23729;DHT22;12045;60.214;24.724;2023-05-23T00:30:48;13.20;99.90
23729;DHT22;12045;60.214;24.724;2023-05-23T00:33:16;12.60;99.90
23729;DHT22;12045;60.214;24.724;2023-05-23T00:35:48;13.30;99.90
23729;DHT22;12045;60.214;24.724;2023-05-23T00:38:16;13.10;99.90
23729;DHT22;12045;60.214;24.724;2023-05-23T00:40:43;13.20;99.90
23729;DHT22;12045;60.214;24.724;2023-05-23T00:43:11;13.30;99.90
23729;DHT22;12045;60.214;24.724;2023-05-23T00:45:39;13.40;99.90
23729;DHT22;12045;60.214;24.724;2023-05-23T00:48:07;12.90;99.90
23729;DHT22;12045;60.214;24.724;2023-05-23T00:50:35;13.50;99.90
23729;DHT22;12045;60.214;24.724;2023-05-23T00:53:03;13.50;99.90
23729;DHT22;12045;60.214;24.724;2023-05-23T00:55:31;14.00;99.90
23729;DHT22;12045;60.214;24.724;2023-05-23T00:57:59;13.50;99.90
23729;DHT22;12045;60.214;24.724;2023-05-23T01:00:27;13.60;99.90
23729;DHT22;12045;60.214;24.724;2023-05-23T01:02:55;13.60;99.90
23729;DHT22;12045;60.214;24.724;2023-05-23T01:05:23;13.70;99.90
23729;DHT22;12045;60.214;24.724;2023-05-23T01:07:53;14.10;99.90
23729;DHT22;12045;60.214;24.724;2023-05-23T01:10:26;13.80;99.90
23729;DHT22;12045;60.214;24.724;2023-05-23T01:18:39;13.90;99.90
23729;DHT22;12045;60.214;24.724;2023-05-23T01:21:17;13.80;99.90
23729;DHT22;12045;60.214;24.724;2023-05-23T01:26:56;13.80;99.90
23729;DHT22;12045;60.214;24.724;2023-05-23T01:29:28;13.80;99.90
23729;DHT22;12045;60.214;24.724;2023-05-23T01:32:00;13.80;99.90
23729;DHT22;12045;60.214;24.724;2023-05-23T01:34:30;13.70;99.90
23729;DHT22;12045;60.214;24.724;2023-05-23T01:36:58;13.70;99.90
23729;DHT22;12045;60.214;24.724;2023-05-23T01:39:25;13.60;99.90
23729;DHT22;12045;60.214;24.724;2023-05-23T01:41:53;13.70;99.90
23729;DHT22;12045;60.214;24.724;2023-05-23T01:44:21;13.60;99.90
23729;DHT22;12045;60.214;24.724;2023-05-23T01:46:49;13.70;99.90
23729;DHT22;12045;60.214;24.724;2023-05-23T01:49:17;13.90;99.90
23729;DHT22;12045;60.214;24.724;2023-05-23T01:51:46;13.60;99.90
23729;DHT22;12045;60.214;24.724;2023-05-23T01:54:15;13.60;99.90
23729;DHT22;12045;60.214;24.724;2023-05-23T01:56:46;13.60;99.90
23729;DHT22;12045;60.214;24.724;2023-05-23T01:59:17;13.60;99.90
23729;DHT22;12045;60.214;24.724;2023-05-23T02:01:45;13.80;99.90
23729;DHT22;12045;60.214;24.724;2023-05-23T02:04:12;13.30;99.90
23729;DHT22;12045;60.214;24.724;2023-05-23T02:06:40;13.70;99.90
23729;DHT22;12045;60.214;24.724;2023-05-23T02:09:08;13.70;99.90
23729;DHT22;12045;60.214;24.724;2023-05-23T02:11:37;13.70;99.90
23729;DHT22;12045;60.214;24.724;2023-05-23T02:14:05;13.20;99.90
23729;DHT22;12045;60.214;24.724;2023-05-23T02:16:33;13.70;99.90
23729;DHT22;12045;60.214;24.724;2023-05-23T02:19:03;13.80;99.90
23729;DHT22;12045;60.214;24.724;2023-05-23T02:21:30;13.80;99.90
23729;DHT22;12045;60.214;24.724;2023-05-23T02:24:01;13.90;99.90
23729;DHT22;12045;60.214;24.724;2023-05-23T02:26:29;13.80;99.90
23729;DHT22;12045;60.214;24.724;2023-05-23T02:28:57;13.80;99.90
23729;DHT22;12045;60.214;24.724;2023-05-23T02:31:25;13.80;99.90
23729;DHT22;12045;60.214;24.724;2023-05-23T02:33:53;13.80;99.90
23729;DHT22;12045;60.214;24.724;2023-05-23T02:36:20;13.80;99.90
23729;DHT22;12045;60.214;24.724;2023-05-23T02:38:48;13.70;99.90
23729;DHT22;12045;60.214;24.724;2023-05-23T02:41:15;14.00;99.90
23729;DHT22;12045;60.214;24.724;2023-05-23T02:43:45;13.70;99.90
23729;DHT22;12045;60.214;24.724;2023-05-23T02:46:13;13.70;99.90
23729;DHT22;12045;60.214;24.724;2023-05-23T02:48:41;13.70;99.90
23729;DHT22;12045;60.214;24.724;2023-05-23T02:51:08;13.80;99.90
23729;DHT22;12045;60.214;24.724;2023-05-23T02:53:36;13.70;99.90
23729;DHT22;12045;60.214;24.724;2023-05-23T02:56:04;14.10;99.90
23729;DHT22;12045;60.214;24.724;2023-05-23T02:58:35;13.70;99.90
23729;DHT22;12045;60.214;24.724;2023-05-23T03:01:03;13.70;99.90
23729;DHT22;12045;60.214;24.724;2023-05-23T03:03:33;13.70;99.90
23729;DHT22;12045;60.214;24.724;2023-05-23T03:06:02;13.70;99.90
23729;DHT22;12045;60.214;24.724;2023-05-23T03:08:31;13.70;99.90
23729;DHT22;12045;60.214;24.724;2023-05-23T03:10:58;13.60;99.90
23729;DHT22;12045;60.214;24.724;2023-05-23T03:13:27;13.60;99.90
23729;DHT22;12045;60.214;24.724;2023-05-23T03:15:54;13.70;99.90
23729;DHT22;12045;60.214;24.724;2023-05-23T03:18:22;13.90;99.90
23729;DHT22;12045;60.214;24.724;2023-05-23T03:20:49;13.30;99.90
23729;DHT22;12045;60.214;24.724;2023-05-23T03:23:17;14.10;99.90
23729;DHT22;12045;60.214;24.724;2023-05-23T03:25:45;14.10;99.90
23729;DHT22;12045;60.214;24.724;2023-05-23T03:28:12;14.20;99.90
23729;DHT22;12045;60.214;24.724;2023-05-23T03:30:40;13.90;99.90
23729;DHT22;12045;60.214;24.724;2023-05-23T03:33:07;14.00;99.90
23729;DHT22;12045;60.214;24.724;2023-05-23T03:35:35;14.20;99.90
23729;DHT22;12045;60.214;24.724;2023-05-23T03:38:03;14.10;99.90
23729;DHT22;12045;60.214;24.724;2023-05-23T03:40:31;14.00;99.90
23729;DHT22;12045;60.214;24.724;2023-05-23T03:43:03;13.80;99.90
23729;DHT22;12045;60.214;24.724;2023-05-23T03:45:31;13.80;99.90
23729;DHT22;12045;60.214;24.724;2023-05-23T03:47:59;14.00;99.90
23729;DHT22;12045;60.214;24.724;2023-05-23T03:50:27;14.40;99.90
23729;DHT22;12045;60.214;24.724;2023-05-23T03:52:55;14.10;99.90
23729;DHT22;12045;60.214;24.724;2023-05-23T03:55:23;14.40;99.90
23729;DHT22;12045;60.214;24.724;2023-05-23T03:57:51;14.20;99.90
23729;DHT22;12045;60.214;24.724;2023-05-23T04:00:19;14.10;99.90
23729;DHT22;12045;60.214;24.724;2023-05-23T04:02:46;14.40;99.90
23729;DHT22;12045;60.214;24.724;2023-05-23T04:05:14;14.20;99.90
23729;DHT22;12045;60.214;24.724;2023-05-23T04:07:43;14.30;99.90
23729;DHT22;12045;60.214;24.724;2023-05-23T04:10:11;14.50;99.90
23729;DHT22;12045;60.214;24.724;2023-05-23T04:12:38;14.70;99.90
23729;DHT22;12045;60.214;24.724;2023-05-23T04:15:08;15.20;99.90
23729;DHT22;12045;60.214;24.724;2023-05-23T04:17:36;14.60;99.90
23729;DHT22;12045;60.214;24.724;2023-05-23T04:20:06;15.30;99.90
23729;DHT22;12045;60.214;24.724;2023-05-23T04:22:36;14.50;99.90
23729;DHT22;12045;60.214;24.724;2023-05-23T04:25:04;14.50;99.90
23729;DHT22;12045;60.214;24.724;2023-05-23T04:27:32;14.50;99.90
23729;DHT22;12045;60.214;24.724;2023-05-23T04:30:06;13.80;99.90
23729;DHT22;12045;60.214;24.724;2023-05-23T04:32:36;14.90;99.90
23729;DHT22;12045;60.214;24.724;2023-05-23T04:35:05;14.60;99.90
23729;DHT22;12045;60.214;24.724;2023-05-23T04:37:32;14.30;99.90
23729;DHT22;12045;60.214;24.724;2023-05-23T04:40:01;14.50;99.90
23729;DHT22;12045;60.214;24.724;2023-05-23T04:42:32;14.40;99.90
23729;DHT22;12045;60.214;24.724;2023-05-23T04:45:00;14.70;99.90
23729;DHT22;12045;60.214;24.724;2023-05-23T04:47:28;14.80;99.90
23729;DHT22;12045;60.214;24.724;2023-05-23T04:49:56;14.80;99.90
23729;DHT22;12045;60.214;24.724;2023-05-23T04:52:23;14.70;99.90
23729;DHT22;12045;60.214;24.724;2023-05-23T04:54:51;14.60;99.90
23729;DHT22;12045;60.214;24.724;2023-05-23T04:57:20;14.60;99.90
23729;DHT22;12045;60.214;24.724;2023-05-23T04:59:48;14.60;99.90
23729;DHT22;12045;60.214;24.724;2023-05-23T05:02:17;14.40;99.90
23729;DHT22;12045;60.214;24.724;2023-05-23T05:04:46;15.10;99.90
23729;DHT22;12045;60.214;24.724;2023-05-23T05:07:14;15.00;99.90
23729;DHT22;12045;60.214;24.724;2023-05-23T05:09:42;15.10;99.90
23729;DHT22;12045;60.214;24.724;2023-05-23T05:12:10;14.60;99.90
23729;DHT22;12045;60.214;24.724;2023-05-23T05:14:37;16.40;99.90
23729;DHT22;12045;60.214;24.724;2023-05-23T05:17:05;15.10;99.90
23729;DHT22;12045;60.214;24.724;2023-05-23T05:19:33;15.30;99.90
23729;DHT22;12045;60.214;24.724;2023-05-23T05:22:00;16.10;99.90
23729;DHT22;12045;60.214;24.724;2023-05-23T05:24:28;15.70;99.90
23729;DHT22;12045;60.214;24.724;2023-05-23T05:26:56;15.50;99.90
23729;DHT22;12045;60.214;24.724;2023-05-23T05:29:23;15.80;99.90
23729;DHT22;12045;60.214;24.724;2023-05-23T05:31:54;15.80;99.90
23729;DHT22;12045;60.214;24.724;2023-05-23T05:34:22;15.90;99.90
23729;DHT22;12045;60.214;24.724;2023-05-23T05:36:49;15.90;99.90
23729;DHT22;12045;60.214;24.724;2023-05-23T05:39:17;16.20;99.90
23729;DHT22;12045;60.214;24.724;2023-05-23T05:41:45;15.60;99.90
23729;DHT22;12045;60.214;24.724;2023-05-23T05:44:13;15.80;99.90
23729;DHT22;12045;60.214;24.724;2023-05-23T05:46:40;16.50;99.90
23729;DHT22;12045;60.214;24.724;2023-05-23T05:49:08;16.10;99.90
23729;DHT22;12045;60.214;24.724;2023-05-23T05:51:38;16.50;99.90
23729;DHT22;12045;60.214;24.724;2023-05-23T05:54:06;16.00;99.90
23729;DHT22;12045;60.214;24.724;2023-05-23T05:56:46;15.70;99.90
23729;DHT22;12045;60.214;24.724;2023-05-23T05:59:16;15.50;99.90
23729;DHT22;12045;60.214;24.724;2023-05-23T06:01:44;16.30;99.90
23729;DHT22;12045;60.214;24.724;2023-05-23T06:04:13;15.80;99.90
23729;DHT22;12045;60.214;24.724;2023-05-23T06:06:41;15.90;99.90
23729;DHT22;12045;60.214;24.724;2023-05-23T06:09:18;16.70;99.90
23729;DHT22;12045;60.214;24.724;2023-05-23T06:11:45;16.60;99.90
23729;DHT22;12045;60.214;24.724;2023-05-23T06:14:13;17.00;99.90
23729;DHT22;12045;60.214;24.724;2023-05-23T06:16:41;16.00;99.90
23729;DHT22;12045;60.214;24.724;2023-05-23T06:19:08;16.40;99.90
23729;DHT22;12045;60.214;24.724;2023-05-23T06:21:40;16.20;99.90
23729;DHT22;12045;60.214;24.724;2023-05-23T06:24:08;16.10;99.90
23729;DHT22;12045;60.214;24.724;2023-05-23T06:26:36;16.10;99.90
23729;DHT22;12045;60.214;24.724;2023-05-23T06:29:05;16.50;99.90
23729;DHT22;12045;60.214;24.724;2023-05-23T06:31:33;16.30;99.90
23729;DHT22;12045;60.214;24.724;2023-05-23T06:34:04;16.60;99.90
23729;DHT22;12045;60.214;24.724;2023-05-23T06:36:37;16.40;99.90
23729;DHT22;12045;60.214;24.724;2023-05-23T06:39:13;15.90;99.90
23729;DHT22;12045;60.214;24.724;2023-05-23T06:41:42;16.40;99.90
23729;DHT22;12045;60.214;24.724;2023-05-23T06:44:11;17.00;99.90
23729;DHT22;12045;60.214;24.724;2023-05-23T06:46:41;16.40;99.90
23729;DHT22;12045;60.214;24.724;2023-05-23T06:49:37;17.30;99.90
23729;DHT22;12045;60.214;24.724;2023-05-23T06:52:21;16.80;99.90
23729;DHT22;12045;60.214;24.724;2023-05-23T06:55:22;17.20;99.90
23729;DHT22;12045;60.214;24.724;2023-05-23T06:58:03;16.90;99.90
23729;DHT22;12045;60.214;24.724;2023-05-23T07:00:36;17.40;99.90
23729;DHT22;12045;60.214;24.724;2023-05-23T07:03:10;17.30;99.90
23729;DHT22;12045;60.214;24.724;2023-05-23T07:05:43;17.20;99.90
23729;DHT22;12045;60.214;24.724;2023-05-23T07:08:20;16.90;99.90
23729;DHT22;12045;60.214;24.724;2023-05-23T07:11:39;17.50;99.90
23729;DHT22;12045;60.214;24.724;2023-05-23T07:14:14;17.50;99.90
23729;DHT22;12045;60.214;24.724;2023-05-23T07:16:49;17.00;99.90
23729;DHT22;12045;60.214;24.724;2023-05-23T07:19:25;17.40;99.90
23729;DHT22;12045;60.214;24.724;2023-05-23T07:22:32;17.60;99.90
23729;DHT22;12045;60.214;24.724;2023-05-23T07:26:01;18.50;99.90
23729;DHT22;12045;60.214;24.724;2023-05-23T07:29:06;18.00;99.90
23729;DHT22;12045;60.214;24.724;2023-05-23T07:32:30;18.00;99.90
23729;DHT22;12045;60.214;24.724;2023-05-23T07:35:28;18.40;99.90
23729;DHT22;12045;60.214;24.724;2023-05-23T07:38:11;18.40;99.90
23729;DHT22;12045;60.214;24.724;2023-05-23T07:40:44;18.10;99.90
23729;DHT22;12045;60.214;24.724;2023-05-23T07:43:28;18.70;99.90
23729;DHT22;12045;60.214;24.724;2023-05-23T07:45:57;18.90;99.90
23729;DHT22;12045;60.214;24.724;2023-05-23T07:48:28;19.00;99.90
23729;DHT22;12045;60.214;24.724;2023-05-23T07:50:58;18.90;99.90
23729;DHT22;12045;60.214;24.724;2023-05-23T07:53:28;18.90;99.90
23729;DHT22;12045;60.214;24.724;2023-05-23T07:55:57;19.00;99.90
23729;DHT22;12045;60.214;24.724;2023-05-23T07:58:25;19.40;99.90
23729;DHT22;12045;60.214;24.724;2023-05-23T08:00:54;19.20;99.90
23729;DHT22;12045;60.214;24.724;2023-05-23T08:03:23;18.70;99.90
23729;DHT22;12045;60.214;24.724;2023-05-23T08:05:52;19.50;99.90
23729;DHT22;12045;60.214;24.724;2023-05-23T08:08:21;19.70;99.90
23729;DHT22;12045;60.214;24.724;2023-05-23T08:10:49;19.90;99.90
23729;DHT22;12045;60.214;24.724;2023-05-23T08:13:18;19.70;99.90
23729;DHT22;12045;60.214;24.724;2023-05-23T08:15:51;20.10;99.90
23729;DHT22;12045;60.214;24.724;2023-05-23T08:18:21;19.80;99.90
23729;DHT22;12045;60.214;24.724;2023-05-23T08:20:54;19.60;99.90
23729;DHT22;12045;60.214;24.724;2023-05-23T08:23:25;19.90;99.90
23729;DHT22;12045;60.214;24.724;2023-05-23T08:25:54;19.80;99.90
23729;DHT22;12045;60.214;24.724;2023-05-23T08:28:27;19.80;99.90
23729;DHT22;12045;60.214;24.724;2023-05-23T08:30:55;19.90;99.90
23729;DHT22;12045;60.214;24.724;2023-05-23T08:33:24;20.00;99.90
23729;DHT22;12045;60.214;24.724;2023-05-23T08:35:53;20.10;99.90
23729;DHT22;12045;60.214;24.724;2023-05-23T08:38:27;20.10;99.90
23729;DHT22;12045;60.214;24.724;2023-05-23T08:41:01;20.20;99.90
23729;DHT22;12045;60.214;24.724;2023-05-23T08:43:29;19.80;99.90
23729;DHT22;12045;60.214;24.724;2023-05-23T08:45:58;19.80;99.90
23729;DHT22;12045;60.214;24.724;2023-05-23T08:48:27;20.10;99.90
23729;DHT22;12045;60.214;24.724;2023-05-23T08:51:00;20.10;99.90
23729;DHT22;12045;60.214;24.724;2023-05-23T08:53:31;20.20;99.90
23729;DHT22;12045;60.214;24.724;2023-05-23T08:56:05;19.60;99.90
23729;DHT22;12045;60.214;24.724;2023-05-23T08:58:34;20.60;99.90
23729;DHT22;12045;60.214;24.724;2023-05-23T09:01:05;20.60;99.90
23729;DHT22;12045;60.214;24.724;2023-05-23T09:03:35;20.10;99.90
23729;DHT22;12045;60.214;24.724;2023-05-23T09:06:12;20.00;99.90
23729;DHT22;12045;60.214;24.724;2023-05-23T09:08:43;20.50;99.90
23729;DHT22;12045;60.214;24.724;2023-05-23T09:11:12;20.50;99.90
23729;DHT22;12045;60.214;24.724;2023-05-23T09:13:41;20.20;99.90
23729;DHT22;12045;60.214;24.724;2023-05-23T09:16:15;20.20;99.90
23729;DHT22;12045;60.214;24.724;2023-05-23T09:18:47;20.60;99.90
23729;DHT22;12045;60.214;24.724;2023-05-23T09:21:15;20.30;99.90
23729;DHT22;12045;60.214;24.724;2023-05-23T09:23:44;20.20;99.90
23729;DHT22;12045;60.214;24.724;2023-05-23T09:26:12;20.60;99.90
23729;DHT22;12045;60.214;24.724;2023-05-23T09:28:42;21.00;99.90
23729;DHT22;12045;60.214;24.724;2023-05-23T09:31:11;20.40;99.90
23729;DHT22;12045;60.214;24.724;2023-05-23T09:33:46;20.60;99.90
23729;DHT22;12045;60.214;24.724;2023-05-23T09:36:17;21.00;99.90
23729;DHT22;12045;60.214;24.724;2023-05-23T09:38:54;20.80;99.90
23729;DHT22;12045;60.214;24.724;2023-05-23T09:41:22;20.70;99.90
23729;DHT22;12045;60.214;24.724;2023-05-23T09:43:53;20.70;99.90
23729;DHT22;12045;60.214;24.724;2023-05-23T09:46:21;20.70;99.90
23729;DHT22;12045;60.214;24.724;2023-05-23T09:49:13;20.30;99.90
23729;DHT22;12045;60.214;24.724;2023-05-23T09:51:57;18.90;99.90
23729;DHT22;12045;60.214;24.724;2023-05-23T09:54:30;21.00;99.90
23729;DHT22;12045;60.214;24.724;2023-05-23T09:56:58;21.20;99.90
23729;DHT22;12045;60.214;24.724;2023-05-23T09:59:30;21.40;99.90
23729;DHT22;12045;60.214;24.724;2023-05-23T10:02:01;21.70;99.90
23729;DHT22;12045;60.214;24.724;2023-05-23T10:04:30;22.00;99.90
23729;DHT22;12045;60.214;24.724;2023-05-23T10:07:13;22.20;99.90
23729;DHT22;12045;60.214;24.724;2023-05-23T10:09:55;22.50;99.90
23729;DHT22;12045;60.214;24.724;2023-05-23T10:12:46;22.50;99.90
23729;DHT22;12045;60.214;24.724;2023-05-23T10:15:18;22.90;99.90
23729;DHT22;12045;60.214;24.724;2023-05-23T10:18:17;22.90;99.40
23729;DHT22;12045;60.214;24.724;2023-05-23T10:20:53;23.00;99.90
23729;DHT22;12045;60.214;24.724;2023-05-23T10:23:30;23.30;98.60
23729;DHT22;12045;60.214;24.724;2023-05-23T10:25:59;23.30;98.00
23729;DHT22;12045;60.214;24.724;2023-05-23T10:28:27;23.30;97.50
23729;DHT22;12045;60.214;24.724;2023-05-23T10:30:57;23.30;97.70
23729;DHT22;12045;60.214;24.724;2023-05-23T10:33:27;22.80;98.10
23729;DHT22;12045;60.214;24.724;2023-05-23T10:36:21;23.10;98.10
23729;DHT22;12045;60.214;24.724;2023-05-23T10:38:59;22.50;98.10
23729;DHT22;12045;60.214;24.724;2023-05-23T10:41:35;22.40;98.70
23729;DHT22;12045;60.214;24.724;2023-05-23T10:44:26;21.00;99.40
23729;DHT22;12045;60.214;24.724;2023-05-23T10:47:00;22.40;98.70
23729;DHT22;12045;60.214;24.724;2023-05-23T10:49:51;22.80;98.20
23729;DHT22;12045;60.214;24.724;2023-05-23T10:52:23;23.00;97.90
23729;DHT22;12045;60.214;24.724;2023-05-23T10:54:53;23.10;97.60
23729;DHT22;12045;60.214;24.724;2023-05-23T10:57:26;23.20;96.70
23729;DHT22;12045;60.214;24.724;2023-05-23T10:59:54;23.40;96.20
23729;DHT22;12045;60.214;24.724;2023-05-23T11:02:26;23.50;96.40
23729;DHT22;12045;60.214;24.724;2023-05-23T11:05:38;23.20;96.10
23729;DHT22;12045;60.214;24.724;2023-05-23T11:08:14;22.80;95.80
23729;DHT22;12045;60.214;24.724;2023-05-23T11:11:07;22.70;97.10
23729;DHT22;12045;60.214;24.724;2023-05-23T11:13:58;22.40;96.80
23729;DHT22;12045;60.214;24.724;2023-05-23T11:17:28;22.10;97.40
23729;DHT22;12045;60.214;24.724;2023-05-23T11:20:39;21.70;98.10
23729;DHT22;12045;60.214;24.724;2023-05-23T11:23:11;20.90;97.00
23729;DHT22;12045;60.214;24.724;2023-05-23T11:28:11;22.70;96.90
23729;DHT22;12045;60.214;24.724;2023-05-23T11:30:40;22.70;96.20
23729;DHT22;12045;60.214;24.724;2023-05-23T11:33:16;22.90;95.90
23729;DHT22;12045;60.214;24.724;2023-05-23T11:35:47;23.10;95.70
23729;DHT22;12045;60.214;24.724;2023-05-23T11:38:15;23.10;95.10
23729;DHT22;12045;60.214;24.724;2023-05-23T11:40:47;23.20;95.70
23729;DHT22;12045;60.214;24.724;2023-05-23T11:43:16;23.20;95.70
23729;DHT22;12045;60.214;24.724;2023-05-23T11:45:44;23.30;95.40
23729;DHT22;12045;60.214;24.724;2023-05-23T11:48:16;23.40;95.40
23729;DHT22;12045;60.214;24.724;2023-05-23T11:51:01;23.70;95.60
23729;DHT22;12045;60.214;24.724;2023-05-23T11:53:29;23.50;93.90
23729;DHT22;12045;60.214;24.724;2023-05-23T11:55:57;23.40;94.60
23729;DHT22;12045;60.214;24.724;2023-05-23T11:58:32;23.40;94.50
23729;DHT22;12045;60.214;24.724;2023-05-23T12:01:05;23.50;93.80
23729;DHT22;12045;60.214;24.724;2023-05-23T12:03:34;23.50;93.70
23729;DHT22;12045;60.214;24.724;2023-05-23T12:06:04;23.50;93.00
23729;DHT22;12045;60.214;24.724;2023-05-23T12:08:32;23.40;92.60
23729;DHT22;12045;60.214;24.724;2023-05-23T12:11:01;23.50;92.70
23729;DHT22;12045;60.214;24.724;2023-05-23T12:13:29;23.50;92.00
23729;DHT22;12045;60.214;24.724;2023-05-23T12:15:59;23.60;92.70
23729;DHT22;12045;60.214;24.724;2023-05-23T12:18:29;23.70;91.40
23729;DHT22;12045;60.214;24.724;2023-05-23T12:21:04;23.50;91.70
23729;DHT22;12045;60.214;24.724;2023-05-23T12:23:35;23.90;90.80
23729;DHT22;12045;60.214;24.724;2023-05-23T12:26:06;24.10;90.00
23729;DHT22;12045;60.214;24.724;2023-05-23T12:33:41;24.30;90.10
23729;DHT22;12045;60.214;24.724;2023-05-23T12:36:11;24.00;88.30
23729;DHT22;12045;60.214;24.724;2023-05-23T12:38:39;24.00;88.20
23729;DHT22;12045;60.214;24.724;2023-05-23T12:41:09;24.00;88.00
23729;DHT22;12045;60.214;24.724;2023-05-23T12:43:38;23.90;86.20
23729;DHT22;12045;60.214;24.724;2023-05-23T12:46:06;24.00;88.30
23729;DHT22;12045;60.214;24.724;2023-05-23T12:48:34;24.10;88.40
23729;DHT22;12045;60.214;24.724;2023-05-23T12:51:02;24.20;87.90
23729;DHT22;12045;60.214;24.724;2023-05-23T12:53:30;24.20;85.50
23729;DHT22;12045;60.214;24.724;2023-05-23T12:55:57;24.10;85.20
23729;DHT22;12045;60.214;24.724;2023-05-23T12:58:25;24.10;87.10
23729;DHT22;12045;60.214;24.724;2023-05-23T13:00:55;24.30;85.40
23729;DHT22;12045;60.214;24.724;2023-05-23T13:03:24;24.30;83.50
23729;DHT22;12045;60.214;24.724;2023-05-23T13:05:51;24.40;81.60
23729;DHT22;12045;60.214;24.724;2023-05-23T13:08:21;24.40;81.80
23729;DHT22;12045;60.214;24.724;2023-05-23T13:10:49;24.20;82.20
23729;DHT22;12045;60.214;24.724;2023-05-23T13:13:17;24.10;82.40
23729;DHT22;12045;60.214;24.724;2023-05-23T13:15:44;24.20;81.50
23729;DHT22;12045;60.214;24.724;2023-05-23T13:18:15;24.20;80.90
23729;DHT22;12045;60.214;24.724;2023-05-23T13:20:43;24.20;80.70
23729;DHT22;12045;60.214;24.724;2023-05-23T13:23:10;24.10;81.90
23729;DHT22;12045;60.214;24.724;2023-05-23T13:25:41;24.00;82.30
23729;DHT22;12045;60.214;24.724;2023-05-23T13:28:11;23.90;81.50
23729;DHT22;12045;60.214;24.724;2023-05-23T13:30:39;23.80;82.70
23729;DHT22;12045;60.214;24.724;2023-05-23T13:33:09;23.80;84.80
23729;DHT22;12045;60.214;24.724;2023-05-23T13:35:37;23.60;85.30
23729;DHT22;12045;60.214;24.724;2023-05-23T13:38:05;23.60;85.70
23729;DHT22;12045;60.214;24.724;2023-05-23T13:40:33;23.40;86.60
23729;DHT22;12045;60.214;24.724;2023-05-23T13:43:00;23.20;87.20
23729;DHT22;12045;60.214;24.724;2023-05-23T13:45:28;22.90;87.80
23729;DHT22;12045;60.214;24.724;2023-05-23T13:47:58;22.50;86.60
23729;DHT22;12045;60.214;24.724;2023-05-23T13:50:26;22.10;88.00
23729;DHT22;12045;60.214;24.724;2023-05-23T13:52:54;21.90;87.80
23729;DHT22;12045;60.214;24.724;2023-05-23T13:55:22;21.70;89.00
23729;DHT22;12045;60.214;24.724;2023-05-23T13:57:50;21.50;89.70
23729;DHT22;12045;60.214;24.724;2023-05-23T14:00:17;21.40;90.80
23729;DHT22;12045;60.214;24.724;2023-05-23T14:02:45;21.20;90.60
23729;DHT22;12045;60.214;24.724;2023-05-23T14:05:13;21.10;91.40
23729;DHT22;12045;60.214;24.724;2023-05-23T14:07:41;21.00;91.80
23729;DHT22;12045;60.214;24.724;2023-05-23T14:10:13;20.90;90.90
23729;DHT22;12045;60.214;24.724;2023-05-23T14:12:41;20.90;92.20
23729;DHT22;12045;60.214;24.724;2023-05-23T14:15:09;20.90;92.60
23729;DHT22;12045;60.214;24.724;2023-05-23T14:17:37;20.80;93.20
23729;DHT22;12045;60.214;24.724;2023-05-23T14:20:06;20.70;93.70
23729;DHT22;12045;60.214;24.724;2023-05-23T14:22:34;20.60;93.30
23729;DHT22;12045;60.214;24.724;2023-05-23T14:25:01;20.50;93.80
23729;DHT22;12045;60.214;24.724;2023-05-23T14:27:28;20.40;94.50
23729;DHT22;12045;60.214;24.724;2023-05-23T14:29:56;20.40;94.90
23729;DHT22;12045;60.214;24.724;2023-05-23T14:32:23;20.30;95.00
23729;DHT22;12045;60.214;24.724;2023-05-23T14:34:51;20.30;96.00
23729;DHT22;12045;60.214;24.724;2023-05-23T14:37:18;20.20;96.20
23729;DHT22;12045;60.214;24.724;2023-05-23T14:39:46;20.20;96.30
23729;DHT22;12045;60.214;24.724;2023-05-23T14:42:14;20.00;96.00
23729;DHT22;12045;60.214;24.724;2023-05-23T14:44:41;20.00;96.00
23729;DHT22;12045;60.214;24.724;2023-05-23T14:47:09;19.90;96.40
23729;DHT22;12045;60.214;24.724;2023-05-23T14:49:36;19.90;96.50
23729;DHT22;12045;60.214;24.724;2023-05-23T14:52:04;20.00;97.10
23729;DHT22;12045;60.214;24.724;2023-05-23T14:54:32;20.00;97.00
23729;DHT22;12045;60.214;24.724;2023-05-23T14:57:00;20.10;97.30
23729;DHT22;12045;60.214;24.724;2023-05-23T14:59:29;20.10;97.80
23729;DHT22;12045;60.214;24.724;2023-05-23T15:01:58;20.10;97.70
23729;DHT22;12045;60.214;24.724;2023-05-23T15:04:25;20.10;98.40
23729;DHT22;12045;60.214;24.724;2023-05-23T15:06:53;20.20;99.00
23729;DHT22;12045;60.214;24.724;2023-05-23T15:09:20;20.10;99.00
23729;DHT22;12045;60.214;24.724;2023-05-23T15:11:49;20.10;98.70
23729;DHT22;12045;60.214;24.724;2023-05-23T15:14:16;20.20;98.90
23729;DHT22;12045;60.214;24.724;2023-05-23T15:16:44;20.20;97.70
23729;DHT22;12045;60.214;24.724;2023-05-23T15:19:12;20.20;97.20
23729;DHT22;12045;60.214;24.724;2023-05-23T15:21:40;20.10;97.40
23729;DHT22;12045;60.214;24.724;2023-05-23T15:24:17;20.10;97.70
23729;DHT22;12045;60.214;24.724;2023-05-23T15:26:45;20.20;98.00
23729;DHT22;12045;60.214;24.724;2023-05-23T15:29:14;20.00;96.80
23729;DHT22;12045;60.214;24.724;2023-05-23T15:31:44;20.40;97.30
23729;DHT22;12045;60.214;24.724;2023-05-23T15:34:12;20.50;97.50
23729;DHT22;12045;60.214;24.724;2023-05-23T15:36:39;20.50;97.50
23729;DHT22;12045;60.214;24.724;2023-05-23T15:39:07;20.30;97.00
23729;DHT22;12045;60.214;24.724;2023-05-23T15:41:34;20.10;97.60
23729;DHT22;12045;60.214;24.724;2023-05-23T15:44:02;19.90;97.70
23729;DHT22;12045;60.214;24.724;2023-05-23T15:46:30;19.80;98.30
23729;DHT22;12045;60.214;24.724;2023-05-23T15:48:57;19.80;98.60
23729;DHT22;12045;60.214;24.724;2023-05-23T15:51:36;19.60;98.70
23729;DHT22;12045;60.214;24.724;2023-05-23T15:54:04;19.40;98.60
23729;DHT22;12045;60.214;24.724;2023-05-23T15:56:31;19.30;99.10